FYT7229 LIRF-LEBL
Flight info
| Callsign | FYT7229 |
|---|---|
| Flight time | 1h 23m |
| Altitude | 32000 |
| Route | DCT ESINO DCT ABIDU DCT EPIKU DCT GINOX/N0448F320 DCT KIFMI DCT ELVOP DCT MUREN DCT CHELY DCT VERSO DCT |
| Aircraft | A321/M-SDE1FGHIJ1RWXY/S |
Departure
| Time | 2026-05-05 08:27 |
|---|---|
| Airport | Rome–Fiumicino Leonardo da Vinci International Airport (LIRF) |
Arrival
| Time | 2026-05-05 09:50 |
|---|---|
| Airport | Josep Tarradellas Barcelona-El Prat Airport (LEBL) |
| Time | Latitude | Longitude | Altitude | Speed | Heading |
|---|---|---|---|---|---|
| 2026-05-05 07:41 | 41.80069 | 12.26214 | 15 ft | 0 kts | 205° |
| 2026-05-05 08:17 | 41.80077 | 12.26219 | 15 ft | 2 kts | 205° |
| 2026-05-05 08:18 | 41.80090 | 12.26227 | 15 ft | 2 kts | 205° |
| 2026-05-05 08:18 | 41.80104 | 12.26236 | 15 ft | 2 kts | 205° |
| 2026-05-05 08:18 | 41.80118 | 12.26244 | 15 ft | 2 kts | 205° |
| 2026-05-05 08:18 | 41.80125 | 12.26249 | 15 ft | 1 kts | 219° |
| 2026-05-05 08:19 | 41.80130 | 12.26256 | 15 ft | 1 kts | 249° |
| 2026-05-05 08:19 | 41.80131 | 12.26261 | 15 ft | 1 kts | 268° |
| 2026-05-05 08:19 | 41.80130 | 12.26240 | 15 ft | 2 kts | 274° |
| 2026-05-05 08:19 | 41.80141 | 12.26211 | 15 ft | 3 kts | 295° |
| 2026-05-05 08:20 | 41.80146 | 12.26196 | 15 ft | 0 kts | 294° |
| 2026-05-05 08:20 | 41.80141 | 12.26210 | 15 ft | 2 kts | 292° |
| 2026-05-05 08:20 | 41.80135 | 12.26228 | 15 ft | 1 kts | 293° |
| 2026-05-05 08:20 | 41.80133 | 12.26234 | 15 ft | 0 kts | 294° |
| 2026-05-05 08:22 | 41.80134 | 12.26233 | 15 ft | 0 kts | 294° |
| 2026-05-05 08:23 | 41.80143 | 12.26207 | 15 ft | 5 kts | 294° |
| 2026-05-05 08:23 | 41.80161 | 12.26149 | 15 ft | 7 kts | 293° |
| 2026-05-05 08:23 | 41.80186 | 12.26079 | 15 ft | 8 kts | 310° |
| 2026-05-05 08:23 | 41.80258 | 12.26065 | 15 ft | 13 kts | 22° |
| 2026-05-05 08:24 | 41.80360 | 12.26126 | 15 ft | 17 kts | 25° |
| 2026-05-05 08:24 | 41.80469 | 12.26182 | 15 ft | 17 kts | 21° |
| 2026-05-05 08:24 | 41.80542 | 12.26302 | 15 ft | 17 kts | 68° |
| 2026-05-05 08:24 | 41.80584 | 12.26451 | 14 ft | 17 kts | 71° |
| 2026-05-05 08:25 | 41.80622 | 12.26605 | 14 ft | 17 kts | 70° |
| 2026-05-05 08:25 | 41.80668 | 12.26759 | 13 ft | 17 kts | 69° |
| 2026-05-05 08:25 | 41.80712 | 12.26914 | 13 ft | 18 kts | 69° |
| 2026-05-05 08:25 | 41.80787 | 12.27031 | 12 ft | 17 kts | 5° |
| 2026-05-05 08:26 | 41.80924 | 12.26984 | 12 ft | 24 kts | 327° |
| 2026-05-05 08:26 | 41.80895 | 12.26700 | 13 ft | 58 kts | 248° |
| 2026-05-05 08:26 | 41.80674 | 12.25904 | 15 ft | 123 kts | 249° |
| 2026-05-05 08:26 | 41.80306 | 12.24567 | 15 ft | 178 kts | 249° |
| 2026-05-05 08:27 | 41.79895 | 12.22883 | 344 ft | 196 kts | 252° |
| 2026-05-05 08:27 | 41.79562 | 12.21149 | 1084 ft | 195 kts | 254° |
| 2026-05-05 08:27 | 41.79343 | 12.19400 | 1951 ft | 187 kts | 258° |
| 2026-05-05 08:27 | 41.79232 | 12.17706 | 2630 ft | 184 kts | 262° |
| 2026-05-05 08:28 | 41.79176 | 12.16009 | 3245 ft | 183 kts | 259° |
| 2026-05-05 08:28 | 41.78688 | 12.14474 | 3616 ft | 189 kts | 227° |
| 2026-05-05 08:28 | 41.77683 | 12.13244 | 3964 ft | 205 kts | 221° |
| 2026-05-05 08:28 | 41.76581 | 12.11915 | 4327 ft | 222 kts | 222° |
| 2026-05-05 08:29 | 41.75412 | 12.10480 | 4908 ft | 231 kts | 223° |
| 2026-05-05 08:29 | 41.74191 | 12.09080 | 5564 ft | 237 kts | 217° |
| 2026-05-05 08:29 | 41.72779 | 12.07866 | 5969 ft | 253 kts | 213° |
| 2026-05-05 08:30 | 41.69675 | 12.05378 | 7281 ft | 263 kts | 214° |
| 2026-05-05 08:30 | 41.68131 | 12.04119 | 7990 ft | 265 kts | 215° |
| 2026-05-05 08:30 | 41.66548 | 12.02814 | 8690 ft | 268 kts | 215° |
| 2026-05-05 08:30 | 41.64977 | 12.01509 | 9355 ft | 271 kts | 215° |
| 2026-05-05 08:31 | 41.63367 | 12.00168 | 10004 ft | 274 kts | 215° |
| 2026-05-05 08:31 | 41.61734 | 11.98806 | 10561 ft | 280 kts | 215° |
| 2026-05-05 08:31 | 41.60037 | 11.97386 | 10860 ft | 296 kts | 215° |
| 2026-05-05 08:31 | 41.58270 | 11.95907 | 11139 ft | 311 kts | 215° |
| 2026-05-05 08:32 | 41.56374 | 11.94325 | 11484 ft | 324 kts | 215° |
| 2026-05-05 08:32 | 41.54462 | 11.92733 | 12043 ft | 328 kts | 215° |
| 2026-05-05 08:32 | 41.52531 | 11.91129 | 12664 ft | 330 kts | 215° |
| 2026-05-05 08:32 | 41.50584 | 11.89509 | 13256 ft | 332 kts | 215° |
| 2026-05-05 08:33 | 41.48636 | 11.87890 | 13824 ft | 334 kts | 215° |
| 2026-05-05 08:33 | 41.46657 | 11.86244 | 14392 ft | 337 kts | 214° |
| 2026-05-05 08:33 | 41.44669 | 11.84592 | 14950 ft | 339 kts | 214° |
| 2026-05-05 08:33 | 41.42647 | 11.82915 | 15487 ft | 342 kts | 214° |
| 2026-05-05 08:34 | 41.40642 | 11.81220 | 16025 ft | 343 kts | 218° |
| 2026-05-05 08:34 | 41.38914 | 11.79061 | 16521 ft | 343 kts | 232° |
| 2026-05-05 08:34 | 41.37676 | 11.76404 | 17030 ft | 343 kts | 246° |
| 2026-05-05 08:34 | 41.36815 | 11.73429 | 17544 ft | 345 kts | 250° |
| 2026-05-05 08:35 | 41.36007 | 11.70438 | 18014 ft | 348 kts | 250° |
| 2026-05-05 08:35 | 41.35189 | 11.67398 | 18476 ft | 350 kts | 250° |
| 2026-05-05 08:35 | 41.34362 | 11.64341 | 18959 ft | 352 kts | 250° |
| 2026-05-05 08:35 | 41.33538 | 11.61302 | 19418 ft | 354 kts | 250° |
| 2026-05-05 08:36 | 41.32703 | 11.58231 | 19885 ft | 356 kts | 250° |
| 2026-05-05 08:36 | 41.31862 | 11.55142 | 20353 ft | 357 kts | 250° |
| 2026-05-05 08:36 | 41.31005 | 11.52004 | 20801 ft | 359 kts | 251° |
| 2026-05-05 08:36 | 41.30161 | 11.48916 | 21230 ft | 361 kts | 251° |
| 2026-05-05 08:37 | 41.29299 | 11.45768 | 21673 ft | 363 kts | 251° |
| 2026-05-05 08:37 | 41.28435 | 11.42611 | 22106 ft | 364 kts | 251° |
| 2026-05-05 08:37 | 41.27571 | 11.39463 | 22511 ft | 366 kts | 251° |
| 2026-05-05 08:37 | 41.26707 | 11.36321 | 22925 ft | 368 kts | 251° |
| 2026-05-05 08:38 | 41.25815 | 11.33082 | 23307 ft | 370 kts | 250° |
| 2026-05-05 08:38 | 41.24941 | 11.29887 | 23676 ft | 373 kts | 250° |
| 2026-05-05 08:38 | 41.24048 | 11.26662 | 24039 ft | 375 kts | 250° |
| 2026-05-05 08:38 | 41.23141 | 11.23412 | 24442 ft | 377 kts | 250° |
| 2026-05-05 08:39 | 41.22229 | 11.20140 | 24838 ft | 378 kts | 250° |
| 2026-05-05 08:39 | 41.21328 | 11.16905 | 25219 ft | 379 kts | 250° |
| 2026-05-05 08:39 | 41.20409 | 11.13599 | 25587 ft | 381 kts | 250° |
| 2026-05-05 08:39 | 41.19506 | 11.10350 | 25947 ft | 382 kts | 250° |
| 2026-05-05 08:40 | 41.18579 | 11.07018 | 26283 ft | 384 kts | 250° |
| 2026-05-05 08:40 | 41.17663 | 11.03731 | 26595 ft | 386 kts | 250° |
| 2026-05-05 08:40 | 41.16729 | 11.00376 | 26948 ft | 387 kts | 250° |
| 2026-05-05 08:40 | 41.15800 | 10.97048 | 27269 ft | 388 kts | 250° |
| 2026-05-05 08:41 | 41.14862 | 10.93692 | 27594 ft | 389 kts | 250° |
| 2026-05-05 08:41 | 41.13922 | 10.90333 | 27909 ft | 390 kts | 250° |
| 2026-05-05 08:41 | 41.12981 | 10.86974 | 28229 ft | 391 kts | 250° |
| 2026-05-05 08:41 | 41.12028 | 10.83574 | 28526 ft | 392 kts | 250° |
| 2026-05-05 08:42 | 41.11073 | 10.80170 | 28818 ft | 394 kts | 250° |
| 2026-05-05 08:42 | 41.10114 | 10.76760 | 29107 ft | 395 kts | 250° |
| 2026-05-05 08:42 | 41.09159 | 10.73369 | 29458 ft | 394 kts | 250° |
| 2026-05-05 08:42 | 41.08208 | 10.69992 | 29861 ft | 392 kts | 250° |
| 2026-05-05 08:43 | 41.07259 | 10.66627 | 30238 ft | 390 kts | 250° |
| 2026-05-05 08:43 | 41.06302 | 10.63243 | 30577 ft | 390 kts | 250° |
| 2026-05-05 08:43 | 41.05364 | 10.59932 | 30865 ft | 390 kts | 250° |
| 2026-05-05 08:43 | 41.04403 | 10.56546 | 31171 ft | 390 kts | 250° |
| 2026-05-05 08:44 | 41.03453 | 10.53201 | 31455 ft | 390 kts | 250° |
| 2026-05-05 08:44 | 41.02497 | 10.49841 | 31680 ft | 391 kts | 250° |
| 2026-05-05 08:44 | 41.01553 | 10.46520 | 31891 ft | 393 kts | 250° |
| 2026-05-05 08:44 | 41.00670 | 10.43080 | 32004 ft | 395 kts | 253° |
| 2026-05-05 08:45 | 40.99922 | 10.39604 | 32006 ft | 395 kts | 256° |
| 2026-05-05 08:45 | 40.98824 | 10.32440 | 32007 ft | 395 kts | 260° |
| 2026-05-05 08:46 | 40.98279 | 10.25231 | 32006 ft | 396 kts | 264° |
| 2026-05-05 08:46 | 40.97910 | 10.17949 | 32003 ft | 396 kts | 264° |
| 2026-05-05 08:47 | 40.97543 | 10.10695 | 32004 ft | 397 kts | 264° |
| 2026-05-05 08:47 | 40.97175 | 10.03451 | 32012 ft | 398 kts | 264° |
| 2026-05-05 08:48 | 40.96799 | 9.96145 | 32016 ft | 399 kts | 264° |
| 2026-05-05 08:48 | 40.96419 | 9.88835 | 32013 ft | 398 kts | 264° |
| 2026-05-05 08:49 | 40.96034 | 9.81523 | 32006 ft | 398 kts | 264° |
| 2026-05-05 08:49 | 40.95645 | 9.74261 | 32004 ft | 398 kts | 264° |
| 2026-05-05 08:50 | 40.95253 | 9.66956 | 32015 ft | 398 kts | 264° |
| 2026-05-05 08:50 | 40.94855 | 9.59686 | 32013 ft | 398 kts | 264° |
| 2026-05-05 08:51 | 40.94452 | 9.52385 | 32014 ft | 398 kts | 264° |
| 2026-05-05 08:51 | 40.94043 | 9.45078 | 32133 ft | 400 kts | 264° |
| 2026-05-05 08:51 | 40.93837 | 9.41415 | 32460 ft | 399 kts | 264° |
| 2026-05-05 08:52 | 40.93631 | 9.37761 | 32765 ft | 398 kts | 264° |
| 2026-05-05 08:52 | 40.93424 | 9.34129 | 32976 ft | 399 kts | 263° |
| 2026-05-05 08:52 | 40.93213 | 9.30486 | 33005 ft | 400 kts | 264° |
| 2026-05-05 08:53 | 40.92790 | 9.23143 | 33013 ft | 400 kts | 263° |
| 2026-05-05 08:53 | 40.92363 | 9.15828 | 33017 ft | 400 kts | 264° |
| 2026-05-05 08:54 | 40.91934 | 9.08550 | 33018 ft | 399 kts | 263° |
| 2026-05-05 08:54 | 40.91495 | 9.01199 | 33019 ft | 400 kts | 263° |
| 2026-05-05 08:55 | 40.91054 | 8.93904 | 33018 ft | 399 kts | 263° |
| 2026-05-05 08:55 | 40.90609 | 8.86612 | 33016 ft | 399 kts | 263° |
| 2026-05-05 08:56 | 40.90159 | 8.79309 | 33015 ft | 399 kts | 263° |
| 2026-05-05 08:56 | 40.89707 | 8.72025 | 33012 ft | 398 kts | 263° |
| 2026-05-05 08:57 | 40.89247 | 8.64719 | 33011 ft | 399 kts | 263° |
| 2026-05-05 08:57 | 40.88783 | 8.57414 | 33008 ft | 399 kts | 263° |
| 2026-05-05 08:58 | 40.88317 | 8.50157 | 33013 ft | 399 kts | 263° |
| 2026-05-05 08:58 | 40.87845 | 8.42881 | 33008 ft | 399 kts | 263° |
| 2026-05-05 08:59 | 40.87369 | 8.35606 | 33000 ft | 398 kts | 263° |
| 2026-05-05 08:59 | 40.86886 | 8.28311 | 33002 ft | 397 kts | 263° |
| 2026-05-05 09:00 | 40.86406 | 8.21105 | 33000 ft | 396 kts | 263° |
| 2026-05-05 09:00 | 40.85956 | 8.13849 | 33001 ft | 397 kts | 264° |
| 2026-05-05 09:01 | 40.85947 | 8.06572 | 33000 ft | 398 kts | 270° |
| 2026-05-05 09:01 | 40.86274 | 7.99315 | 32998 ft | 398 kts | 271° |
| 2026-05-05 09:02 | 40.86769 | 7.92004 | 33001 ft | 398 kts | 272° |
| 2026-05-05 09:02 | 40.87283 | 7.84786 | 32992 ft | 398 kts | 272° |
| 2026-05-05 09:03 | 40.87785 | 7.77535 | 32992 ft | 397 kts | 272° |
| 2026-05-05 09:03 | 40.88277 | 7.70312 | 32993 ft | 396 kts | 272° |
| 2026-05-05 09:04 | 40.88766 | 7.63044 | 32987 ft | 396 kts | 272° |
| 2026-05-05 09:04 | 40.89245 | 7.55839 | 32991 ft | 395 kts | 272° |
| 2026-05-05 09:05 | 40.89720 | 7.48631 | 32990 ft | 395 kts | 272° |
| 2026-05-05 09:05 | 40.90190 | 7.41419 | 32985 ft | 394 kts | 272° |
| 2026-05-05 09:06 | 40.90654 | 7.34216 | 32986 ft | 394 kts | 271° |
| 2026-05-05 09:06 | 40.91112 | 7.27034 | 32986 ft | 393 kts | 271° |
| 2026-05-05 09:07 | 40.91570 | 7.19802 | 32982 ft | 393 kts | 271° |
| 2026-05-05 09:07 | 40.92018 | 7.12660 | 32978 ft | 393 kts | 271° |
| 2026-05-05 09:08 | 40.92465 | 7.05467 | 32975 ft | 392 kts | 271° |
| 2026-05-05 09:08 | 40.92902 | 6.98329 | 32975 ft | 391 kts | 271° |
| 2026-05-05 09:09 | 40.93338 | 6.91152 | 32975 ft | 391 kts | 271° |
| 2026-05-05 09:09 | 40.93767 | 6.84009 | 32977 ft | 390 kts | 271° |
| 2026-05-05 09:10 | 40.94193 | 6.76868 | 32965 ft | 391 kts | 271° |
| 2026-05-05 09:10 | 40.94611 | 6.69764 | 32979 ft | 390 kts | 271° |
| 2026-05-05 09:11 | 40.95027 | 6.62630 | 32980 ft | 390 kts | 271° |
| 2026-05-05 09:11 | 40.95437 | 6.55506 | 32976 ft | 389 kts | 271° |
| 2026-05-05 09:12 | 40.95845 | 6.48362 | 32977 ft | 389 kts | 271° |
| 2026-05-05 09:12 | 40.96246 | 6.41244 | 32977 ft | 389 kts | 271° |
| 2026-05-05 09:13 | 40.96641 | 6.34136 | 32977 ft | 388 kts | 270° |
| 2026-05-05 09:13 | 40.97032 | 6.27059 | 32973 ft | 388 kts | 270° |
| 2026-05-05 09:14 | 40.97420 | 6.19947 | 32971 ft | 388 kts | 270° |
| 2026-05-05 09:14 | 40.97797 | 6.12957 | 32974 ft | 387 kts | 270° |
| 2026-05-05 09:15 | 40.98179 | 6.05784 | 32979 ft | 387 kts | 270° |
| 2026-05-05 09:15 | 40.98553 | 5.98674 | 32976 ft | 387 kts | 270° |
| 2026-05-05 09:16 | 40.98920 | 5.91626 | 32979 ft | 386 kts | 270° |
| 2026-05-05 09:16 | 40.99284 | 5.84535 | 32972 ft | 387 kts | 270° |
| 2026-05-05 09:17 | 40.99645 | 5.77451 | 32973 ft | 386 kts | 270° |
| 2026-05-05 09:17 | 40.99998 | 5.70410 | 32969 ft | 385 kts | 270° |
| 2026-05-05 09:18 | 41.00383 | 5.63330 | 32954 ft | 387 kts | 272° |
| 2026-05-05 09:18 | 41.00800 | 5.56306 | 32960 ft | 385 kts | 269° |
| 2026-05-05 09:19 | 41.01057 | 5.49241 | 32956 ft | 385 kts | 269° |
| 2026-05-05 09:19 | 41.01374 | 5.42123 | 32954 ft | 386 kts | 269° |
| 2026-05-05 09:20 | 41.01721 | 5.35057 | 32957 ft | 385 kts | 270° |
| 2026-05-05 09:20 | 41.01909 | 5.31525 | 32717 ft | 386 kts | 269° |
| 2026-05-05 09:20 | 41.02096 | 5.28009 | 32458 ft | 383 kts | 269° |
| 2026-05-05 09:20 | 41.02280 | 5.24537 | 32197 ft | 381 kts | 269° |
| 2026-05-05 09:21 | 41.02461 | 5.21065 | 31940 ft | 379 kts | 269° |
| 2026-05-05 09:21 | 41.02642 | 5.17567 | 31679 ft | 378 kts | 269° |
| 2026-05-05 09:21 | 41.02819 | 5.14112 | 31421 ft | 380 kts | 269° |
| 2026-05-05 09:21 | 41.02993 | 5.10654 | 31163 ft | 381 kts | 269° |
| 2026-05-05 09:22 | 41.03170 | 5.07130 | 30898 ft | 382 kts | 269° |
| 2026-05-05 09:22 | 41.03345 | 5.03652 | 30644 ft | 383 kts | 269° |
| 2026-05-05 09:22 | 41.03521 | 5.00137 | 30383 ft | 384 kts | 269° |
| 2026-05-05 09:22 | 41.03693 | 4.96636 | 30123 ft | 385 kts | 269° |
| 2026-05-05 09:23 | 41.03867 | 4.93087 | 29857 ft | 386 kts | 269° |
| 2026-05-05 09:23 | 41.04040 | 4.89537 | 29591 ft | 387 kts | 269° |
| 2026-05-05 09:23 | 41.04211 | 4.86015 | 29330 ft | 387 kts | 270° |
| 2026-05-05 09:23 | 41.04607 | 4.82462 | 29060 ft | 393 kts | 276° |
| 2026-05-05 09:24 | 41.05216 | 4.78958 | 28796 ft | 395 kts | 278° |
| 2026-05-05 09:24 | 41.05863 | 4.75420 | 28529 ft | 393 kts | 278° |
| 2026-05-05 09:24 | 41.06499 | 4.71922 | 28275 ft | 392 kts | 278° |
| 2026-05-05 09:24 | 41.07127 | 4.68407 | 28008 ft | 390 kts | 278° |
| 2026-05-05 09:25 | 41.07740 | 4.64926 | 27742 ft | 388 kts | 278° |
| 2026-05-05 09:25 | 41.08339 | 4.61484 | 27491 ft | 387 kts | 278° |
| 2026-05-05 09:25 | 41.08941 | 4.58012 | 27231 ft | 386 kts | 277° |
| 2026-05-05 09:25 | 41.09528 | 4.54596 | 26974 ft | 384 kts | 277° |
| 2026-05-05 09:26 | 41.10122 | 4.51128 | 26713 ft | 383 kts | 277° |
| 2026-05-05 09:26 | 41.10704 | 4.47720 | 26457 ft | 381 kts | 277° |
| 2026-05-05 09:26 | 41.11286 | 4.44294 | 26204 ft | 379 kts | 277° |
| 2026-05-05 09:26 | 41.11856 | 4.40936 | 25940 ft | 378 kts | 277° |
| 2026-05-05 09:27 | 41.12432 | 4.37532 | 25678 ft | 377 kts | 277° |
| 2026-05-05 09:27 | 41.13001 | 4.34169 | 25426 ft | 376 kts | 277° |
| 2026-05-05 09:27 | 41.13572 | 4.30779 | 25161 ft | 374 kts | 277° |
| 2026-05-05 09:27 | 41.14135 | 4.27429 | 24913 ft | 372 kts | 276° |
| 2026-05-05 09:28 | 41.14700 | 4.24060 | 24649 ft | 371 kts | 277° |
| 2026-05-05 09:28 | 41.15255 | 4.20750 | 24386 ft | 370 kts | 277° |
| 2026-05-05 09:28 | 41.15807 | 4.17443 | 24127 ft | 368 kts | 277° |
| 2026-05-05 09:28 | 41.16359 | 4.14140 | 23876 ft | 367 kts | 277° |
| 2026-05-05 09:29 | 41.16905 | 4.10863 | 23628 ft | 366 kts | 277° |
| 2026-05-05 09:29 | 41.17331 | 4.08302 | 23421 ft | 366 kts | 277° |
| 2026-05-05 09:29 | 41.17816 | 4.05384 | 23206 ft | 365 kts | 277° |
| 2026-05-05 09:30 | 41.18353 | 4.02143 | 22961 ft | 364 kts | 277° |
| 2026-05-05 09:30 | 41.18893 | 3.98878 | 22709 ft | 363 kts | 277° |
| 2026-05-05 09:30 | 41.19436 | 3.95594 | 22465 ft | 363 kts | 277° |
| 2026-05-05 09:30 | 41.19971 | 3.92342 | 22221 ft | 361 kts | 277° |
| 2026-05-05 09:31 | 41.20501 | 3.89119 | 21984 ft | 360 kts | 277° |
| 2026-05-05 09:31 | 41.21035 | 3.85872 | 21730 ft | 359 kts | 277° |
| 2026-05-05 09:31 | 41.21567 | 3.82630 | 21475 ft | 358 kts | 277° |
| 2026-05-05 09:31 | 41.22088 | 3.79447 | 21228 ft | 358 kts | 277° |
| 2026-05-05 09:32 | 41.22618 | 3.76198 | 20980 ft | 357 kts | 277° |
| 2026-05-05 09:32 | 41.23146 | 3.73023 | 20729 ft | 356 kts | 278° |
| 2026-05-05 09:32 | 41.23716 | 3.69810 | 20478 ft | 356 kts | 278° |
| 2026-05-05 09:32 | 41.24281 | 3.66647 | 20237 ft | 355 kts | 278° |
| 2026-05-05 09:33 | 41.24850 | 3.63459 | 19987 ft | 354 kts | 278° |
| 2026-05-05 09:33 | 41.25413 | 3.60277 | 19732 ft | 353 kts | 278° |
| 2026-05-05 09:33 | 41.25970 | 3.57123 | 19486 ft | 352 kts | 278° |
| 2026-05-05 09:33 | 41.26525 | 3.53969 | 19232 ft | 351 kts | 278° |
| 2026-05-05 09:34 | 41.27074 | 3.50840 | 18981 ft | 350 kts | 278° |
| 2026-05-05 09:34 | 41.27621 | 3.47708 | 18730 ft | 350 kts | 278° |
| 2026-05-05 09:34 | 41.28166 | 3.44583 | 18471 ft | 348 kts | 278° |
| 2026-05-05 09:34 | 41.28707 | 3.41472 | 18202 ft | 348 kts | 278° |
| 2026-05-05 09:35 | 41.29253 | 3.38321 | 17833 ft | 346 kts | 278° |
| 2026-05-05 09:35 | 41.30322 | 3.32155 | 16893 ft | 342 kts | 278° |
| 2026-05-05 09:35 | 41.30850 | 3.29094 | 16379 ft | 342 kts | 278° |
| 2026-05-05 09:36 | 41.31382 | 3.26002 | 15857 ft | 341 kts | 278° |
| 2026-05-05 09:36 | 41.31908 | 3.22948 | 15336 ft | 341 kts | 278° |
| 2026-05-05 09:36 | 41.32429 | 3.19918 | 14814 ft | 341 kts | 278° |
| 2026-05-05 09:36 | 41.32958 | 3.16834 | 14276 ft | 341 kts | 278° |
| 2026-05-05 09:37 | 41.33479 | 3.13784 | 13759 ft | 340 kts | 278° |
| 2026-05-05 09:37 | 41.34001 | 3.10730 | 13247 ft | 339 kts | 279° |
| 2026-05-05 09:37 | 41.34520 | 3.07687 | 12751 ft | 337 kts | 279° |
| 2026-05-05 09:37 | 41.35035 | 3.04676 | 12255 ft | 336 kts | 279° |
| 2026-05-05 09:38 | 41.35548 | 3.01662 | 11763 ft | 333 kts | 279° |
| 2026-05-05 09:38 | 41.36053 | 2.98683 | 11298 ft | 330 kts | 279° |
| 2026-05-05 09:38 | 41.36552 | 2.95739 | 10824 ft | 328 kts | 279° |
| 2026-05-05 09:38 | 41.37048 | 2.92809 | 10508 ft | 319 kts | 279° |
| 2026-05-05 09:39 | 41.37520 | 2.90040 | 10359 ft | 294 kts | 279° |
| 2026-05-05 09:39 | 41.37950 | 2.87517 | 10222 ft | 273 kts | 278° |
| 2026-05-05 09:39 | 41.38358 | 2.85098 | 10076 ft | 264 kts | 278° |
| 2026-05-05 09:39 | 41.38750 | 2.82760 | 9928 ft | 253 kts | 278° |
| 2026-05-05 09:40 | 41.39125 | 2.80511 | 9678 ft | 250 kts | 278° |
| 2026-05-05 09:40 | 41.39502 | 2.78247 | 9380 ft | 249 kts | 278° |
| 2026-05-05 09:40 | 41.39740 | 2.76001 | 9064 ft | 245 kts | 267° |
| 2026-05-05 09:40 | 41.39667 | 2.73759 | 8737 ft | 241 kts | 263° |
| 2026-05-05 09:41 | 41.39542 | 2.71551 | 8310 ft | 237 kts | 263° |
| 2026-05-05 09:41 | 41.39430 | 2.69398 | 7976 ft | 234 kts | 264° |
| 2026-05-05 09:41 | 41.39332 | 2.67243 | 7602 ft | 233 kts | 264° |
| 2026-05-05 09:41 | 41.39247 | 2.65109 | 7257 ft | 232 kts | 265° |
| 2026-05-05 09:42 | 41.39169 | 2.62969 | 6903 ft | 231 kts | 265° |
| 2026-05-05 09:42 | 41.39095 | 2.60829 | 6545 ft | 231 kts | 265° |
| 2026-05-05 09:42 | 41.39022 | 2.58706 | 6148 ft | 232 kts | 265° |
| 2026-05-05 09:42 | 41.38950 | 2.56592 | 5861 ft | 227 kts | 265° |
| 2026-05-05 09:43 | 41.38881 | 2.54505 | 5477 ft | 221 kts | 265° |
| 2026-05-05 09:43 | 41.38814 | 2.52489 | 5223 ft | 220 kts | 265° |
| 2026-05-05 09:43 | 41.38746 | 2.50468 | 4829 ft | 220 kts | 266° |
| 2026-05-05 09:43 | 41.38679 | 2.48455 | 4509 ft | 215 kts | 266° |
| 2026-05-05 09:44 | 41.38614 | 2.46479 | 4182 ft | 210 kts | 266° |
| 2026-05-05 09:44 | 41.38551 | 2.44566 | 3890 ft | 209 kts | 266° |
| 2026-05-05 09:44 | 41.38484 | 2.42621 | 3599 ft | 209 kts | 266° |
| 2026-05-05 09:44 | 41.38417 | 2.40711 | 3326 ft | 208 kts | 266° |
| 2026-05-05 09:45 | 41.38350 | 2.38778 | 3044 ft | 208 kts | 266° |
| 2026-05-05 09:45 | 41.38284 | 2.36847 | 2772 ft | 208 kts | 266° |
| 2026-05-05 09:45 | 41.38216 | 2.34940 | 2507 ft | 207 kts | 264° |
| 2026-05-05 09:45 | 41.38034 | 2.33058 | 2287 ft | 205 kts | 256° |
| 2026-05-05 09:46 | 41.37622 | 2.31229 | 2270 ft | 205 kts | 248° |
| 2026-05-05 09:46 | 41.37138 | 2.29554 | 2279 ft | 186 kts | 246° |
| 2026-05-05 09:46 | 41.36631 | 2.27982 | 2272 ft | 184 kts | 244° |
| 2026-05-05 09:46 | 41.36103 | 2.26432 | 2265 ft | 184 kts | 243° |
| 2026-05-05 09:47 | 41.35567 | 2.24877 | 2262 ft | 185 kts | 243° |
| 2026-05-05 09:47 | 41.35029 | 2.23319 | 2116 ft | 185 kts | 243° |
| 2026-05-05 09:47 | 41.34493 | 2.21768 | 1872 ft | 183 kts | 243° |
| 2026-05-05 09:47 | 41.33993 | 2.20318 | 1613 ft | 165 kts | 243° |
| 2026-05-05 09:48 | 41.33532 | 2.18980 | 1387 ft | 153 kts | 244° |
| 2026-05-05 09:48 | 41.33097 | 2.17714 | 1190 ft | 147 kts | 244° |
| 2026-05-05 09:48 | 41.32677 | 2.16498 | 1013 ft | 146 kts | 244° |
| 2026-05-05 09:48 | 41.32250 | 2.15263 | 827 ft | 145 kts | 244° |
| 2026-05-05 09:49 | 41.31830 | 2.14044 | 640 ft | 145 kts | 245° |
| 2026-05-05 09:49 | 41.31416 | 2.12827 | 443 ft | 145 kts | 246° |
| 2026-05-05 09:49 | 41.30997 | 2.11610 | 252 ft | 145 kts | 246° |
| 2026-05-05 09:49 | 41.30579 | 2.10398 | 59 ft | 145 kts | 246° |
| 2026-05-05 09:50 | 41.30183 | 2.09219 | 19 ft | 121 kts | 243° |
| 2026-05-05 09:50 | 41.29904 | 2.08411 | 19 ft | 72 kts | 245° |
| 2026-05-05 09:50 | 41.29756 | 2.07997 | 19 ft | 35 kts | 232° |
| 2026-05-05 09:50 | 41.29668 | 2.07892 | 19 ft | 0 kts | 216° |
| 2026-05-05 09:51 | 41.29662 | 2.07887 | 19 ft | 3 kts | 216° |
| 2026-05-05 09:51 | 41.29631 | 2.07860 | 19 ft | 5 kts | 213° |
| 2026-05-05 09:51 | 41.29621 | 2.07851 | 19 ft | 0 kts | 213° |
| 2026-05-05 09:51 | 41.29614 | 2.07845 | 19 ft | 1 kts | 213° |
| 2026-05-05 09:52 | 41.29601 | 2.07833 | 19 ft | 2 kts | 213° |